MSC Vienna — A8CI9 — position and weather

sailwx.info

Track history (hours):
 
Tides and Currents Weather Stations Pressure Air Temp Water Temp Dewpoint Dewpoint Depression Visibility Wind Speed Wind Dir Waves Ship Positions

MSC Vienna

Last reported at 2017-Apr-22 11:04 UTC. Time now 2017-Apr-25 12:32 UTC.
Position N 35°58' W 005°41'.

Length 260.1 m; beam 32.2 m; draft 12 m.

Type: Ship (hazmat cat B). MMSI: 636090654.

Date/timePositionNaut miles runAvg speedWind from/ knotsBaromVisibWave heightAir tempDewpointWater temp
2017-Apr-22 11:04N 35°58' W 005°41'317.9
2017-Apr-22 10:53N 35°58' W 005°37'617.1
2017-Apr-22 10:30N 35°59' W 005°29'917.2
2017-Apr-22 10:00N 36°01' W 005°19'23214.4
2017-Apr-21 17:55N 37°23' W 000°49'715.2
2017-Apr-21 17:28N 37°28' W 000°42'815.2
2017-Apr-21 16:58N 37°33' W 000°35'714.1
2017-Apr-21 16:30N 37°38' W 000°30'10811.1
2017-Apr-21 06:48N 39°26' W 000°18'2 2.9
2017-Apr-21 06:17N 39°27' W 000°19'0 0.0
2017-Apr-21 05:59N 39°27' W 000°19'0 0.0
2017-Apr-21 05:29N 39°27' W 000°19'0 0.0
2017-Apr-21 04:59N 39°27' W 000°19'0 0.0
2017-Apr-21 04:29N 39°27' W 000°19'0 0.0
2017-Apr-21 03:56N 39°27' W 000°19'0 0.1
2017-Apr-21 03:29N 39°27' W 000°19'0 0.0
2017-Apr-21 02:59N 39°27' W 000°19'0 0.0
2017-Apr-21 02:29N 39°27' W 000°19'0 0.0
2017-Apr-21 01:59N 39°27' W 000°19'0 0.0
2017-Apr-21 01:29N 39°27' W 000°19'0 0.0
2017-Apr-21 00:59N 39°27' W 000°19'0 0.0
2017-Apr-21 00:29N 39°27' W 000°19'0 0.0
2017-Apr-20 23:59N 39°27' W 000°19'0 0.0
2017-Apr-20 23:29N 39°27' W 000°19'0 0.0
2017-Apr-20 22:56N 39°27' W 000°19'0 0.0
2017-Apr-20 22:26N 39°27' W 000°19'0 0.0
2017-Apr-20 21:38N 39°27' W 000°19'0 0.0
2017-Apr-20 21:26N 39°27' W 000°19'0 0.0
2017-Apr-20 20:56N 39°27' W 000°19'0 0.0
2017-Apr-20 18:55N 39°27' W 000°19'0 0.0
2017-Apr-20 18:25N 39°27' W 000°19'0 0.0
2017-Apr-20 17:49N 39°27' W 000°19'0 0.0
2017-Apr-20 17:08N 39°27' W 000°19'0 0.0
2017-Apr-20 16:56N 39°27' W 000°19'0 0.0
2017-Apr-20 16:30N 39°27' W 000°19'0 0.0
2017-Apr-20 16:00N 39°27' W 000°19'0 0.0
2017-Apr-20 15:30N 39°27' W 000°19'0 0.0
2017-Apr-20 15:00N 39°27' W 000°19'0 0.0
2017-Apr-20 14:30N 39°27' W 000°19'0 0.0
2017-Apr-20 13:30N 39°27' W 000°19'0 0.0
2017-Apr-20 12:57N 39°27' W 000°19'0 0.0
2017-Apr-20 12:27N 39°27' W 000°19'0 0.0
2017-Apr-20 12:00N 39°27' W 000°19'0 0.0
2017-Apr-20 11:21N 39°27' W 000°19'0 0.0
2017-Apr-20 10:51N 39°27' W 000°19'0 0.8
2017-Apr-20 10:30N 39°27' W 000°19'3 6.0
2017-Apr-20 10:00N 39°25' W 000°15'12814.4
2017-Apr-20 01:08N 40°51' E 001°48'315.1
2017-Apr-20 00:57N 40°54' E 001°50'264 8.6
2017-Apr-18 18:21N 43°07' E 006°57'515.0
2017-Apr-18 18:00N 43°10' E 007°03'815.2
2017-Apr-18 17:29N 43°15' E 007°12'815.6
2017-Apr-18 17:00N 43°19' E 007°20'816.1
2017-Apr-18 16:30N 43°24' E 007°29'816.8
2017-Apr-18 16:00N 43°29' E 007°38'816.8
2017-Apr-18 15:30N 43°34' E 007°48'3916.1
2017-Apr-18 13:06N 44°00' E 008°27'215.9
2017-Apr-18 13:00N 44°02' E 008°28'815.4
2017-Apr-18 12:30N 44°08' E 008°34'815.1
2017-Apr-18 12:00N 44°15' E 008°39'715.0
2017-Apr-18 11:30N 44°22' E 008°42'5 9.3
2017-Apr-18 11:00N 44°25' E 008°47'0 0.1
2017-Apr-18 10:21N 44°25' E 008°47'0 0.0
2017-Apr-18 09:51N 44°25' E 008°47'0 0.0
2017-Apr-18 09:30N 44°25' E 008°47'0 0.0
2017-Apr-18 08:54N 44°25' E 008°47'0 0.0
2017-Apr-18 08:24N 44°25' E 008°47'0 0.0
2017-Apr-18 07:54N 44°25' E 008°47'0 0.0
2017-Apr-18 07:24N 44°25' E 008°47'0 0.0
2017-Apr-18 06:51N 44°25' E 008°47'0 0.0
2017-Apr-18 06:27N 44°25' E 008°47'0 0.0
2017-Apr-18 05:57N 44°25' E 008°47'0 0.0
2017-Apr-18 05:24N 44°25' E 008°47'0 0.0
2017-Apr-18 04:57N 44°25' E 008°47'0 0.0
2017-Apr-18 04:27N 44°25' E 008°47'0 0.0
2017-Apr-18 04:00N 44°25' E 008°47'0 0.0
2017-Apr-18 03:27N 44°25' E 008°47'0 0.0
2017-Apr-18 03:00N 44°25' E 008°47'0 0.0
2017-Apr-18 02:30N 44°25' E 008°47'0 0.0
2017-Apr-18 02:00N 44°25' E 008°47'0 0.0
2017-Apr-18 01:30N 44°25' E 008°47'0 0.0
2017-Apr-18 01:00N 44°25' E 008°47'0 0.0
2017-Apr-18 00:30N 44°25' E 008°47'0 0.0
2017-Apr-18 00:00N 44°25' E 008°47'0 0.0
2017-Apr-17 23:30N 44°25' E 008°47'0 0.0
2017-Apr-17 23:00N 44°25' E 008°47'0 0.0
2017-Apr-17 22:24N 44°25' E 008°47'0 0.0
2017-Apr-17 22:00N 44°25' E 008°47'0 0.0
2017-Apr-17 21:30N 44°25' E 008°47'0 0.0
2017-Apr-17 20:57N 44°25' E 008°47'0 0.0
2017-Apr-17 20:30N 44°25' E 008°47'0 0.0
2017-Apr-17 20:00N 44°25' E 008°47'0 0.0
2017-Apr-17 19:30N 44°25' E 008°47'0 0.0
2017-Apr-17 19:00N 44°25' E 008°47'0 0.0
2017-Apr-17 18:27N 44°25' E 008°47'0 0.0
2017-Apr-17 18:00N 44°25' E 008°47'0 0.0
2017-Apr-17 17:30N 44°25' E 008°47'0 0.0
2017-Apr-17 17:00N 44°25' E 008°47'0 0.0
2017-Apr-17 16:30N 44°25' E 008°47'0 0.1
2017-Apr-17 16:00N 44°25' E 008°47'1 2.8
2017-Apr-17 15:30N 44°24' E 008°46'0 0.5
2017-Apr-17 15:00N 44°24' E 008°46'0 0.6
2017-Apr-17 14:25N 44°23' E 008°45'0 0.1
2017-Apr-17 13:13N 44°23' E 008°46'0 0.1
2017-Apr-17 12:55N 44°23' E 008°45'0 0.1
2017-Apr-17 12:25N 44°23' E 008°45'0 0.0
2017-Apr-17 11:55N 44°23' E 008°45'0 0.0
2017-Apr-17 11:25N 44°23' E 008°45'0 0.1
2017-Apr-17 10:49N 44°23' E 008°45'0 0.0
2017-Apr-17 10:19N 44°23' E 008°45'0 0.0
2017-Apr-17 09:55N 44°23' E 008°45'0 0.0
2017-Apr-17 09:25N 44°23' E 008°46'0 0.0
2017-Apr-17 08:55N 44°23' E 008°45'0 0.0
2017-Apr-17 08:25N 44°23' E 008°45'0 0.0
2017-Apr-17 07:49N 44°23' E 008°45'0 0.0
2017-Apr-17 07:25N 44°23' E 008°45'0 0.0
2017-Apr-17 06:55N 44°23' E 008°45'0 0.0
2017-Apr-17 06:25N 44°23' E 008°45'0 0.0
2017-Apr-17 05:55N 44°23' E 008°45'0 0.0
2017-Apr-17 05:25N 44°23' E 008°45'0 0.0
2017-Apr-17 04:55N 44°23' E 008°45'0 0.0
2017-Apr-17 04:25N 44°23' E 008°45'0 0.1
2017-Apr-17 03:55N 44°23' E 008°45'0 0.0
2017-Apr-17 03:25N 44°23' E 008°46'0 0.0
2017-Apr-17 02:55N 44°23' E 008°46'0 0.1
2017-Apr-17 02:25N 44°23' E 008°45'0 0.0
2017-Apr-17 01:55N 44°23' E 008°45'0 0.1
2017-Apr-17 01:25N 44°23' E 008°45'0 0.1
2017-Apr-17 00:49N 44°23' E 008°45'0 0.1
2017-Apr-17 00:25N 44°23' E 008°45'0 0.0
2017-Apr-16 23:55N 44°23' E 008°45'0 0.0
2017-Apr-16 23:25N 44°23' E 008°45'0 0.0
2017-Apr-16 22:55N 44°23' E 008°45'0 0.1
2017-Apr-16 22:25N 44°23' E 008°45'0 0.0
2017-Apr-16 21:49N 44°23' E 008°45'0 0.0
2017-Apr-16 21:25N 44°23' E 008°45'0 0.1
2017-Apr-16 20:55N 44°23' E 008°45'0 0.0
2017-Apr-16 20:25N 44°23' E 008°45'0 0.0
2017-Apr-16 19:55N 44°23' E 008°45'0 0.0
2017-Apr-16 19:25N 44°23' E 008°45'0 0.0
2017-Apr-16 18:55N 44°23' E 008°45'0 0.0
2017-Apr-16 18:25N 44°23' E 008°45'0 0.0
2017-Apr-16 17:55N 44°23' E 008°45'0 0.0
2017-Apr-16 17:25N 44°23' E 008°45'0 0.0
2017-Apr-16 16:55N 44°23' E 008°45'0 0.0
2017-Apr-16 16:25N 44°23' E 008°45'0 0.0
2017-Apr-16 15:55N 44°23' E 008°45'0 0.0
2017-Apr-16 15:13N 44°23' E 008°45'0 0.0
2017-Apr-16 14:55N 44°23' E 008°45'0 0.1
2017-Apr-16 14:30N 44°23' E 008°46'9 9.5
2017-Apr-16 13:30N 44°15' E 008°50'612.5
2017-Apr-16 13:00N 44°10' E 008°56'612.6
2017-Apr-16 12:30N 44°05' E 009°01'612.7
2017-Apr-16 12:01N 44°00' E 009°08'612.7
2017-Apr-16 11:31N 43°56' E 009°14'612.5
2017-Apr-16 11:01N 43°52' E 009°20'612.4
2017-Apr-16 10:31N 43°48' E 009°27'612.4
2017-Apr-16 10:00N 43°43' E 009°33'612.4
2017-Apr-16 09:30N 43°39' E 009°39'612.6
2017-Apr-16 09:01N 43°35' E 009°45'612.5
2017-Apr-16 08:30N 43°31' E 009°53'712.6
2017-Apr-16 07:55N 43°30' E 010°03'512.8
2017-Apr-16 07:30N 43°30' E 010°10'510.8
2017-Apr-16 07:01N 43°32' E 010°17'2 4.9
2017-Apr-16 06:31N 43°34' E 010°18'0 0.2
2017-Apr-16 05:58N 43°35' E 010°18'0 0.0
2017-Apr-16 05:28N 43°35' E 010°18'0 0.0
2017-Apr-16 04:58N 43°35' E 010°18'0 0.0
2017-Apr-16 04:28N 43°35' E 010°18'0 0.0
2017-Apr-16 03:58N 43°35' E 010°18'0 0.0
2017-Apr-16 03:28N 43°35' E 010°18'0 0.0
2017-Apr-16 02:58N 43°35' E 010°18'0 0.0
2017-Apr-16 02:28N 43°35' E 010°18'0 0.0
2017-Apr-16 01:58N 43°35' E 010°18'0 0.0
2017-Apr-16 01:28N 43°35' E 010°18'0 0.0
2017-Apr-16 00:58N 43°35' E 010°18'0 0.0
2017-Apr-16 00:25N 43°35' E 010°18'0 0.0
2017-Apr-15 23:58N 43°35' E 010°18'0 0.0
2017-Apr-15 23:28N 43°35' E 010°18'0 0.0
2017-Apr-15 22:58N 43°35' E 010°18'0 0.0
2017-Apr-15 22:25N 43°35' E 010°18'0 0.0
2017-Apr-15 21:58N 43°35' E 010°18'0 0.0
2017-Apr-15 21:28N 43°35' E 010°18'0 0.0
2017-Apr-15 20:58N 43°35' E 010°18'0 0.0
2017-Apr-15 20:28N 43°35' E 010°18'0 0.0
2017-Apr-15 19:58N 43°35' E 010°18'0 0.0
2017-Apr-15 19:28N 43°35' E 010°18'0 0.0
2017-Apr-15 18:58N 43°35' E 010°18'0 0.0
2017-Apr-15 18:28N 43°35' E 010°18'0 0.0
2017-Apr-15 17:58N 43°35' E 010°18'0 0.0
2017-Apr-15 17:28N 43°35' E 010°18'0 0.0
2017-Apr-15 16:55N 43°35' E 010°18'0 0.0
2017-Apr-15 16:28N 43°35' E 010°18'0 0.0
2017-Apr-15 15:55N 43°35' E 010°18'0 0.0
2017-Apr-15 15:28N 43°35' E 010°18'0 0.0
2017-Apr-15 14:58N 43°35' E 010°18'0 0.0
2017-Apr-15 14:28N 43°35' E 010°18'0 0.0
2017-Apr-15 13:28N 43°35' E 010°18'0 0.0
2017-Apr-15 12:58N 43°35' E 010°18'0 0.0
2017-Apr-15 12:25N 43°35' E 010°18'0 0.0
2017-Apr-15 11:58N 43°35' E 010°18'0 0.0
2017-Apr-15 11:28N 43°35' E 010°18'0 0.0
2017-Apr-15 10:58N 43°35' E 010°18'0 0.0
2017-Apr-15 10:28N 43°35' E 010°18'0 0.0
2017-Apr-15 09:58N 43°35' E 010°18'0 0.0
2017-Apr-15 09:28N 43°35' E 010°18'0 0.0
2017-Apr-15 08:52N 43°35' E 010°18'0 0.0
2017-Apr-15 08:28N 43°35' E 010°18'0 0.0
2017-Apr-15 07:58N 43°35' E 010°18'0 0.0
2017-Apr-15 07:28N 43°35' E 010°18'0 0.0
2017-Apr-15 06:58N 43°35' E 010°18'0 0.0
2017-Apr-15 06:28N 43°35' E 010°18'0 0.0
2017-Apr-15 05:58N 43°35' E 010°18'0 0.4
2017-Apr-15 05:30N 43°34' E 010°18'2 3.6
2017-Apr-15 05:00N 43°33' E 010°17'1 2.6
2017-Apr-15 04:30N 43°32' E 010°16'1 1.8
2017-Apr-15 04:00N 43°31' E 010°15'2 4.2
2017-Apr-15 03:30N 43°30' E 010°13'3 5.3
2017-Apr-15 03:00N 43°27' E 010°12'4 7.8
2017-Apr-15 02:30N 43°23' E 010°11'4 7.8
2017-Apr-15 02:00N 43°19' E 010°10'612.4
2017-Apr-15 01:30N 43°13' E 010°08'612.7
2017-Apr-15 01:00N 43°07' E 010°06'712.7
2017-Apr-15 00:27N 43°00' E 010°04'244 9.1
2017-Apr-13 21:34N 38°58' E 009°30'112.7
2017-Apr-13 21:30N 38°58' E 009°29'713.3
2017-Apr-13 20:58N 39°02' E 009°21'612.9
2017-Apr-13 20:29N 39°05' E 009°14'612.7
2017-Apr-13 20:00N 39°08' E 009°07'5 9.2
2017-Apr-13 19:30N 39°12' E 009°05'1 2.3
2017-Apr-13 19:00N 39°13' E 009°04'0 0.1
2017-Apr-13 18:27N 39°13' E 009°04'0 0.0
2017-Apr-13 17:57N 39°13' E 009°04'0 0.0
2017-Apr-13 17:27N 39°13' E 009°04'0 0.0
2017-Apr-13 16:57N 39°13' E 009°04'0 0.0
2017-Apr-13 16:27N 39°13' E 009°04'0 0.0
2017-Apr-13 15:57N 39°13' E 009°04'0 0.0
2017-Apr-13 15:27N 39°13' E 009°04'0 0.0
2017-Apr-13 14:57N 39°13' E 009°04'0 0.0
2017-Apr-13 14:27N 39°13' E 009°04'0 0.0
2017-Apr-13 13:27N 39°13' E 009°04'0 0.0
2017-Apr-13 12:57N 39°13' E 009°04'0 0.0
2017-Apr-13 12:27N 39°13' E 009°04'0 0.0
2017-Apr-13 11:57N 39°13' E 009°04'0 0.0
2017-Apr-13 11:27N 39°13' E 009°04'0 0.0
2017-Apr-13 10:57N 39°13' E 009°04'0 0.0
2017-Apr-13 10:27N 39°13' E 009°04'0 0.0
2017-Apr-13 09:57N 39°13' E 009°04'0 0.0
2017-Apr-13 09:27N 39°13' E 009°04'0 0.0
2017-Apr-13 08:57N 39°13' E 009°04'0 0.0
2017-Apr-13 08:27N 39°13' E 009°04'0 0.0
2017-Apr-13 07:57N 39°13' E 009°04'0 0.0
2017-Apr-13 07:09N 39°13' E 009°04'0 0.0
2017-Apr-13 06:57N 39°13' E 009°04'0 0.0
2017-Apr-13 06:27N 39°13' E 009°04'0 0.0
2017-Apr-13 05:57N 39°13' E 009°04'0 0.0
2017-Apr-13 05:27N 39°13' E 009°04'0 0.0
2017-Apr-13 04:57N 39°13' E 009°04'0 0.0
2017-Apr-13 04:30N 39°13' E 009°04'2 4.4
2017-Apr-13 04:00N 39°11' E 009°06'612.0
2017-Apr-13 03:30N 39°05' E 009°07'816.0
2017-Apr-13 02:59N 38°57' E 009°06'2017.7
2017-Apr-13 01:50N 38°40' E 008°51'617.1
2017-Apr-13 01:27N 38°40' E 008°43'25518.3
2017-Apr-12 11:33N 39°01' E 003°18'319.4
2017-Apr-12 11:23N 39°01' E 003°14'  
Track history (hours):
 
Tides and Currents Weather Stations Pressure Air Temp Water Temp Dewpoint Dewpoint Depression Visibility Wind Speed Wind Dir Waves Ship Positions

MSC Vienna

Last reported at 2017-Apr-22 11:04 UTC. Time now 2017-Apr-25 12:32 UTC.
Position N 35°58' W 005°41'.

Length 260.1 m; beam 32.2 m; draft 12 m.

Type: Ship (hazmat cat B). MMSI: 636090654.

Date/timePositionNaut miles runAvg speedWind from/ knotsBaromVisibWave heightAir tempDewpointWater temp
2017-Apr-22 11:04N 35°58' W 005°41'317.9
2017-Apr-22 10:53N 35°58' W 005°37'617.1
2017-Apr-22 10:30N 35°59' W 005°29'917.2
2017-Apr-22 10:00N 36°01' W 005°19'23214.4
2017-Apr-21 17:55N 37°23' W 000°49'715.2
2017-Apr-21 17:28N 37°28' W 000°42'815.2
2017-Apr-21 16:58N 37°33' W 000°35'714.1
2017-Apr-21 16:30N 37°38' W 000°30'10811.1
2017-Apr-21 06:48N 39°26' W 000°18'2 2.9
2017-Apr-21 06:17N 39°27' W 000°19'0 0.0
2017-Apr-21 05:59N 39°27' W 000°19'0 0.0
2017-Apr-21 05:29N 39°27' W 000°19'0 0.0
2017-Apr-21 04:59N 39°27' W 000°19'0 0.0
2017-Apr-21 04:29N 39°27' W 000°19'0 0.0
2017-Apr-21 03:56N 39°27' W 000°19'0 0.1
2017-Apr-21 03:29N 39°27' W 000°19'0 0.0
2017-Apr-21 02:59N 39°27' W 000°19'0 0.0
2017-Apr-21 02:29N 39°27' W 000°19'0 0.0
2017-Apr-21 01:59N 39°27' W 000°19'0 0.0
2017-Apr-21 01:29N 39°27' W 000°19'0 0.0
2017-Apr-21 00:59N 39°27' W 000°19'0 0.0
2017-Apr-21 00:29N 39°27' W 000°19'0 0.0
2017-Apr-20 23:59N 39°27' W 000°19'0 0.0
2017-Apr-20 23:29N 39°27' W 000°19'0 0.0
2017-Apr-20 22:56N 39°27' W 000°19'0 0.0
2017-Apr-20 22:26N 39°27' W 000°19'0 0.0
2017-Apr-20 21:38N 39°27' W 000°19'0 0.0
2017-Apr-20 21:26N 39°27' W 000°19'0 0.0
2017-Apr-20 20:56N 39°27' W 000°19'0 0.0
2017-Apr-20 18:55N 39°27' W 000°19'0 0.0
2017-Apr-20 18:25N 39°27' W 000°19'0 0.0
2017-Apr-20 17:49N 39°27' W 000°19'0 0.0
2017-Apr-20 17:08N 39°27' W 000°19'0 0.0
2017-Apr-20 16:56N 39°27' W 000°19'0 0.0
2017-Apr-20 16:30N 39°27' W 000°19'0 0.0
2017-Apr-20 16:00N 39°27' W 000°19'0 0.0
2017-Apr-20 15:30N 39°27' W 000°19'0 0.0
2017-Apr-20 15:00N 39°27' W 000°19'0 0.0
2017-Apr-20 14:30N 39°27' W 000°19'0 0.0
2017-Apr-20 13:30N 39°27' W 000°19'0 0.0
2017-Apr-20 12:57N 39°27' W 000°19'0 0.0
2017-Apr-20 12:27N 39°27' W 000°19'0 0.0
2017-Apr-20 12:00N 39°27' W 000°19'0 0.0
2017-Apr-20 11:21N 39°27' W 000°19'0 0.0
2017-Apr-20 10:51N 39°27' W 000°19'0 0.8
2017-Apr-20 10:30N 39°27' W 000°19'3 6.0
2017-Apr-20 10:00N 39°25' W 000°15'12814.4
2017-Apr-20 01:08N 40°51' E 001°48'315.1
2017-Apr-20 00:57N 40°54' E 001°50'264 8.6
2017-Apr-18 18:21N 43°07' E 006°57'515.0
2017-Apr-18 18:00N 43°10' E 007°03'815.2
2017-Apr-18 17:29N 43°15' E 007°12'815.6
2017-Apr-18 17:00N 43°19' E 007°20'816.1
2017-Apr-18 16:30N 43°24' E 007°29'816.8
2017-Apr-18 16:00N 43°29' E 007°38'816.8
2017-Apr-18 15:30N 43°34' E 007°48'3916.1
2017-Apr-18 13:06N 44°00' E 008°27'215.9
2017-Apr-18 13:00N 44°02' E 008°28'815.4
2017-Apr-18 12:30N 44°08' E 008°34'815.1
2017-Apr-18 12:00N 44°15' E 008°39'715.0
2017-Apr-18 11:30N 44°22' E 008°42'5 9.3
2017-Apr-18 11:00N 44°25' E 008°47'0 0.1
2017-Apr-18 10:21N 44°25' E 008°47'0 0.0
2017-Apr-18 09:51N 44°25' E 008°47'0 0.0
2017-Apr-18 09:30N 44°25' E 008°47'0 0.0
2017-Apr-18 08:54N 44°25' E 008°47'0 0.0
2017-Apr-18 08:24N 44°25' E 008°47'0 0.0
2017-Apr-18 07:54N 44°25' E 008°47'0 0.0
2017-Apr-18 07:24N 44°25' E 008°47'0 0.0
2017-Apr-18 06:51N 44°25' E 008°47'0 0.0
2017-Apr-18 06:27N 44°25' E 008°47'0 0.0
2017-Apr-18 05:57N 44°25' E 008°47'0 0.0
2017-Apr-18 05:24N 44°25' E 008°47'0 0.0
2017-Apr-18 04:57N 44°25' E 008°47'0 0.0
2017-Apr-18 04:27N 44°25' E 008°47'0 0.0
2017-Apr-18 04:00N 44°25' E 008°47'0 0.0
2017-Apr-18 03:27N 44°25' E 008°47'0 0.0
2017-Apr-18 03:00N 44°25' E 008°47'0 0.0
2017-Apr-18 02:30N 44°25' E 008°47'0 0.0
2017-Apr-18 02:00N 44°25' E 008°47'0 0.0
2017-Apr-18 01:30N 44°25' E 008°47'0 0.0
2017-Apr-18 01:00N 44°25' E 008°47'0 0.0
2017-Apr-18 00:30N 44°25' E 008°47'0 0.0
2017-Apr-18 00:00N 44°25' E 008°47'0 0.0
2017-Apr-17 23:30N 44°25' E 008°47'0 0.0
2017-Apr-17 23:00N 44°25' E 008°47'0 0.0
2017-Apr-17 22:24N 44°25' E 008°47'0 0.0
2017-Apr-17 22:00N 44°25' E 008°47'0 0.0
2017-Apr-17 21:30N 44°25' E 008°47'0 0.0
2017-Apr-17 20:57N 44°25' E 008°47'0 0.0
2017-Apr-17 20:30N 44°25' E 008°47'0 0.0
2017-Apr-17 20:00N 44°25' E 008°47'0 0.0
2017-Apr-17 19:30N 44°25' E 008°47'0 0.0
2017-Apr-17 19:00N 44°25' E 008°47'0 0.0
2017-Apr-17 18:27N 44°25' E 008°47'0 0.0
2017-Apr-17 18:00N 44°25' E 008°47'0 0.0
2017-Apr-17 17:30N 44°25' E 008°47'0 0.0
2017-Apr-17 17:00N 44°25' E 008°47'0 0.0
2017-Apr-17 16:30N 44°25' E 008°47'0 0.1
2017-Apr-17 16:00N 44°25' E 008°47'1 2.8
2017-Apr-17 15:30N 44°24' E 008°46'0 0.5
2017-Apr-17 15:00N 44°24' E 008°46'0 0.6
2017-Apr-17 14:25N 44°23' E 008°45'0 0.1
2017-Apr-17 13:13N 44°23' E 008°46'0 0.1
2017-Apr-17 12:55N 44°23' E 008°45'0 0.1
2017-Apr-17 12:25N 44°23' E 008°45'0 0.0
2017-Apr-17 11:55N 44°23' E 008°45'0 0.0
2017-Apr-17 11:25N 44°23' E 008°45'0 0.1
2017-Apr-17 10:49N 44°23' E 008°45'0 0.0
2017-Apr-17 10:19N 44°23' E 008°45'0 0.0
2017-Apr-17 09:55N 44°23' E 008°45'0 0.0
2017-Apr-17 09:25N 44°23' E 008°46'0 0.0
2017-Apr-17 08:55N 44°23' E 008°45'0 0.0
2017-Apr-17 08:25N 44°23' E 008°45'0 0.0
2017-Apr-17 07:49N 44°23' E 008°45'0 0.0
2017-Apr-17 07:25N 44°23' E 008°45'0 0.0
2017-Apr-17 06:55N 44°23' E 008°45'0 0.0
2017-Apr-17 06:25N 44°23' E 008°45'0 0.0
2017-Apr-17 05:55N 44°23' E 008°45'0 0.0
2017-Apr-17 05:25N 44°23' E 008°45'0 0.0
2017-Apr-17 04:55N 44°23' E 008°45'0 0.0
2017-Apr-17 04:25N 44°23' E 008°45'0 0.1
2017-Apr-17 03:55N 44°23' E 008°45'0 0.0
2017-Apr-17 03:25N 44°23' E 008°46'0 0.0
2017-Apr-17 02:55N 44°23' E 008°46'0 0.1
2017-Apr-17 02:25N 44°23' E 008°45'0 0.0
2017-Apr-17 01:55N 44°23' E 008°45'0 0.1
2017-Apr-17 01:25N 44°23' E 008°45'0 0.1
2017-Apr-17 00:49N 44°23' E 008°45'0 0.1
2017-Apr-17 00:25N 44°23' E 008°45'0 0.0
2017-Apr-16 23:55N 44°23' E 008°45'0 0.0
2017-Apr-16 23:25N 44°23' E 008°45'0 0.0
2017-Apr-16 22:55N 44°23' E 008°45'0 0.1
2017-Apr-16 22:25N 44°23' E 008°45'0 0.0
2017-Apr-16 21:49N 44°23' E 008°45'0 0.0
2017-Apr-16 21:25N 44°23' E 008°45'0 0.1
2017-Apr-16 20:55N 44°23' E 008°45'0 0.0
2017-Apr-16 20:25N 44°23' E 008°45'0 0.0
2017-Apr-16 19:55N 44°23' E 008°45'0 0.0
2017-Apr-16 19:25N 44°23' E 008°45'0 0.0
2017-Apr-16 18:55N 44°23' E 008°45'0 0.0
2017-Apr-16 18:25N 44°23' E 008°45'0 0.0
2017-Apr-16 17:55N 44°23' E 008°45'0 0.0
2017-Apr-16 17:25N 44°23' E 008°45'0 0.0
2017-Apr-16 16:55N 44°23' E 008°45'0 0.0
2017-Apr-16 16:25N 44°23' E 008°45'0 0.0
2017-Apr-16 15:55N 44°23' E 008°45'0 0.0
2017-Apr-16 15:13N 44°23' E 008°45'0 0.0
2017-Apr-16 14:55N 44°23' E 008°45'0 0.1
2017-Apr-16 14:30N 44°23' E 008°46'9 9.5
2017-Apr-16 13:30N 44°15' E 008°50'612.5
2017-Apr-16 13:00N 44°10' E 008°56'612.6
2017-Apr-16 12:30N 44°05' E 009°01'612.7
2017-Apr-16 12:01N 44°00' E 009°08'612.7
2017-Apr-16 11:31N 43°56' E 009°14'612.5
2017-Apr-16 11:01N 43°52' E 009°20'612.4
2017-Apr-16 10:31N 43°48' E 009°27'612.4
2017-Apr-16 10:00N 43°43' E 009°33'612.4
2017-Apr-16 09:30N 43°39' E 009°39'612.6
2017-Apr-16 09:01N 43°35' E 009°45'612.5
2017-Apr-16 08:30N 43°31' E 009°53'712.6
2017-Apr-16 07:55N 43°30' E 010°03'512.8
2017-Apr-16 07:30N 43°30' E 010°10'510.8
2017-Apr-16 07:01N 43°32' E 010°17'2 4.9
2017-Apr-16 06:31N 43°34' E 010°18'0 0.2
2017-Apr-16 05:58N 43°35' E 010°18'0 0.0
2017-Apr-16 05:28N 43°35' E 010°18'0 0.0
2017-Apr-16 04:58N 43°35' E 010°18'0 0.0
2017-Apr-16 04:28N 43°35' E 010°18'0 0.0
2017-Apr-16 03:58N 43°35' E 010°18'0 0.0
2017-Apr-16 03:28N 43°35' E 010°18'0 0.0
2017-Apr-16 02:58N 43°35' E 010°18'0 0.0
2017-Apr-16 02:28N 43°35' E 010°18'0 0.0
2017-Apr-16 01:58N 43°35' E 010°18'0 0.0
2017-Apr-16 01:28N 43°35' E 010°18'0 0.0
2017-Apr-16 00:58N 43°35' E 010°18'0 0.0
2017-Apr-16 00:25N 43°35' E 010°18'0 0.0
2017-Apr-15 23:58N 43°35' E 010°18'0 0.0
2017-Apr-15 23:28N 43°35' E 010°18'0 0.0
2017-Apr-15 22:58N 43°35' E 010°18'0 0.0
2017-Apr-15 22:25N 43°35' E 010°18'0 0.0
2017-Apr-15 21:58N 43°35' E 010°18'0 0.0
2017-Apr-15 21:28N 43°35' E 010°18'0 0.0
2017-Apr-15 20:58N 43°35' E 010°18'0 0.0
2017-Apr-15 20:28N 43°35' E 010°18'0 0.0
2017-Apr-15 19:58N 43°35' E 010°18'0 0.0
2017-Apr-15 19:28N 43°35' E 010°18'0 0.0
2017-Apr-15 18:58N 43°35' E 010°18'0 0.0
2017-Apr-15 18:28N 43°35' E 010°18'0 0.0
2017-Apr-15 17:58N 43°35' E 010°18'0 0.0
2017-Apr-15 17:28N 43°35' E 010°18'0 0.0
2017-Apr-15 16:55N 43°35' E 010°18'0 0.0
2017-Apr-15 16:28N 43°35' E 010°18'0 0.0
2017-Apr-15 15:55N 43°35' E 010°18'0 0.0
2017-Apr-15 15:28N 43°35' E 010°18'0 0.0
2017-Apr-15 14:58N 43°35' E 010°18'0 0.0
2017-Apr-15 14:28N 43°35' E 010°18'0 0.0
2017-Apr-15 13:28N 43°35' E 010°18'0 0.0
2017-Apr-15 12:58N 43°35' E 010°18'0 0.0
2017-Apr-15 12:25N 43°35' E 010°18'0 0.0
2017-Apr-15 11:58N 43°35' E 010°18'0 0.0
2017-Apr-15 11:28N 43°35' E 010°18'0 0.0
2017-Apr-15 10:58N 43°35' E 010°18'0 0.0
2017-Apr-15 10:28N 43°35' E 010°18'0 0.0
2017-Apr-15 09:58N 43°35' E 010°18'0 0.0
2017-Apr-15 09:28N 43°35' E 010°18'0 0.0
2017-Apr-15 08:52N 43°35' E 010°18'0 0.0
2017-Apr-15 08:28N 43°35' E 010°18'0 0.0
2017-Apr-15 07:58N 43°35' E 010°18'0 0.0
2017-Apr-15 07:28N 43°35' E 010°18'0 0.0
2017-Apr-15 06:58N 43°35' E 010°18'0 0.0
2017-Apr-15 06:28N 43°35' E 010°18'0 0.0
2017-Apr-15 05:58N 43°35' E 010°18'0 0.4
2017-Apr-15 05:30N 43°34' E 010°18'2 3.6
2017-Apr-15 05:00N 43°33' E 010°17'1 2.6
2017-Apr-15 04:30N 43°32' E 010°16'1 1.8
2017-Apr-15 04:00N 43°31' E 010°15'2 4.2
2017-Apr-15 03:30N 43°30' E 010°13'3 5.3
2017-Apr-15 03:00N 43°27' E 010°12'4 7.8
2017-Apr-15 02:30N 43°23' E 010°11'4 7.8
2017-Apr-15 02:00N 43°19' E 010°10'612.4
2017-Apr-15 01:30N 43°13' E 010°08'612.7
2017-Apr-15 01:00N 43°07' E 010°06'712.7
2017-Apr-15 00:27N 43°00' E 010°04'244 9.1
2017-Apr-13 21:34N 38°58' E 009°30'112.7
2017-Apr-13 21:30N 38°58' E 009°29'713.3
2017-Apr-13 20:58N 39°02' E 009°21'612.9
2017-Apr-13 20:29N 39°05' E 009°14'612.7
2017-Apr-13 20:00N 39°08' E 009°07'5 9.2
2017-Apr-13 19:30N 39°12' E 009°05'1 2.3
2017-Apr-13 19:00N 39°13' E 009°04'0 0.1
2017-Apr-13 18:27N 39°13' E 009°04'0 0.0
2017-Apr-13 17:57N 39°13' E 009°04'0 0.0
2017-Apr-13 17:27N 39°13' E 009°04'0 0.0
2017-Apr-13 16:57N 39°13' E 009°04'0 0.0
2017-Apr-13 16:27N 39°13' E 009°04'0 0.0
2017-Apr-13 15:57N 39°13' E 009°04'0 0.0
2017-Apr-13 15:27N 39°13' E 009°04'0 0.0
2017-Apr-13 14:57N 39°13' E 009°04'0 0.0
2017-Apr-13 14:27N 39°13' E 009°04'0 0.0
2017-Apr-13 13:27N 39°13' E 009°04'0 0.0
2017-Apr-13 12:57N 39°13' E 009°04'0 0.0
2017-Apr-13 12:27N 39°13' E 009°04'0 0.0
2017-Apr-13 11:57N 39°13' E 009°04'0 0.0
2017-Apr-13 11:27N 39°13' E 009°04'0 0.0
2017-Apr-13 10:57N 39°13' E 009°04'0 0.0
2017-Apr-13 10:27N 39°13' E 009°04'0 0.0
2017-Apr-13 09:57N 39°13' E 009°04'0 0.0
2017-Apr-13 09:27N 39°13' E 009°04'0 0.0
2017-Apr-13 08:57N 39°13' E 009°04'0 0.0
2017-Apr-13 08:27N 39°13' E 009°04'0 0.0
2017-Apr-13 07:57N 39°13' E 009°04'0 0.0
2017-Apr-13 07:09N 39°13' E 009°04'0 0.0
2017-Apr-13 06:57N 39°13' E 009°04'0 0.0
2017-Apr-13 06:27N 39°13' E 009°04'0 0.0
2017-Apr-13 05:57N 39°13' E 009°04'0 0.0
2017-Apr-13 05:27N 39°13' E 009°04'0 0.0
2017-Apr-13 04:57N 39°13' E 009°04'0 0.0
2017-Apr-13 04:30N 39°13' E 009°04'2 4.4
2017-Apr-13 04:00N 39°11' E 009°06'612.0
2017-Apr-13 03:30N 39°05' E 009°07'816.0
2017-Apr-13 02:59N 38°57' E 009°06'2017.7
2017-Apr-13 01:50N 38°40' E 008°51'617.1
2017-Apr-13 01:27N 38°40' E 008°43'25518.3
2017-Apr-12 11:33N 39°01' E 003°18'319.4
2017-Apr-12 11:23N 39°01' E 003°14'  

Dump ship's entire track history